createdAt,value
2024-04-23T00:00:45.224Z,101004.19
2024-04-23T00:03:12.174Z,101006.78
2024-04-23T00:05:38.962Z,100994.66
2024-04-23T00:08:06.267Z,100998.97
2024-04-23T00:10:33.180Z,100998.97
2024-04-23T00:13:00.056Z,100997.25
2024-04-23T00:15:26.913Z,101005.91
2024-04-23T00:17:53.801Z,100999.88
2024-04-23T00:20:20.635Z,101005.91
2024-04-23T00:22:47.481Z,100996.41
2024-04-23T00:25:14.266Z,101002.47
2024-04-23T00:27:41.059Z,100992.09
2024-04-23T00:30:08.560Z,100988.66
2024-04-23T00:32:35.451Z,100991.25
2024-04-23T00:35:02.977Z,100988.66
2024-04-23T00:37:29.890Z,100983.47
2024-04-23T00:39:56.695Z,100980.84
2024-04-23T00:42:23.536Z,100975.69
2024-04-23T00:44:53.697Z,100979.16
2024-04-23T00:47:22.131Z,100977.41
2024-04-23T00:49:50.641Z,100973.09
2024-04-23T00:52:18.331Z,100965.34
2024-04-23T00:54:45.531Z,100975.69
2024-04-23T00:57:12.554Z,100967.06
2024-04-23T00:59:39.475Z,100967.88
2024-04-23T01:02:06.413Z,100971.31
2024-04-23T01:04:33.456Z,100957.44
2024-04-23T01:07:00.474Z,100965.19
2024-04-23T01:09:27.422Z,100961.72
2024-04-23T01:11:54.276Z,100962.50
2024-04-23T01:14:21.237Z,100961.56
2024-04-23T01:16:50.403Z,100964.97
2024-04-23T01:19:29.401Z,100958.91
2024-04-23T01:22:04.254Z,100964.91
2024-04-23T01:24:38.534Z,100967.47
2024-04-23T01:27:06.286Z,100960.50
2024-04-23T01:29:34.021Z,100966.53
2024-04-23T01:32:04.505Z,100963.06
2024-04-23T01:34:33.339Z,100955.25
2024-04-23T01:37:01.113Z,100963.84
2024-04-23T01:39:29.367Z,100969.00
2024-04-23T01:41:57.334Z,100962.03
2024-04-23T01:44:24.395Z,100976.69
2024-04-23T01:46:51.618Z,100962.84
2024-04-23T01:49:18.543Z,100957.56
2024-04-23T01:51:45.740Z,100957.50
2024-04-23T01:54:12.511Z,100963.50
2024-04-23T01:56:39.369Z,100949.69
2024-04-23T01:59:06.216Z,100957.44
2024-04-23T02:01:39.176Z,100963.47
2024-04-23T02:04:08.984Z,100955.69
2024-04-23T02:06:35.917Z,100946.19
2024-04-23T02:09:04.052Z,100956.53
2024-04-23T02:11:31.573Z,100953.09
2024-04-23T02:13:58.616Z,100947.91
2024-04-23T02:16:25.456Z,100948.75
2024-04-23T02:18:52.237Z,100946.19
2024-04-23T02:21:19.037Z,100944.44
2024-04-23T02:23:45.853Z,100940.09
2024-04-23T02:26:12.858Z,100944.31
2024-04-23T02:28:39.708Z,100946.88
2024-04-23T02:31:06.582Z,100946.88
2024-04-23T02:33:33.532Z,100955.50
2024-04-23T02:36:00.490Z,100962.38
2024-04-23T02:38:27.294Z,100952.84
2024-04-23T02:40:55.281Z,100946.88
2024-04-23T02:43:22.192Z,100945.94
2024-04-23T02:45:48.975Z,100950.25
2024-04-23T02:48:15.846Z,100957.16
2024-04-23T02:50:42.866Z,100945.91
2024-04-23T02:53:09.684Z,100947.59
2024-04-23T02:55:36.538Z,100937.16
2024-04-23T02:58:03.346Z,100938.00
2024-04-23T03:00:30.511Z,100940.59
2024-04-23T03:02:57.566Z,100944.91
2024-04-23T03:05:24.565Z,100949.22
2024-04-23T03:07:51.400Z,100932.78
2024-04-23T03:10:18.267Z,100937.88
2024-04-23T03:12:45.027Z,100947.34
2024-04-23T03:15:11.792Z,100937.81
2024-04-23T03:17:38.666Z,100937.75
2024-04-23T03:20:06.616Z,100946.28
2024-04-23T03:22:33.471Z,100943.59
2024-04-23T03:25:00.351Z,100948.69
2024-04-23T03:27:27.195Z,100944.28
2024-04-23T03:29:53.981Z,100945.13
2024-04-23T03:32:20.989Z,100939.09
2024-04-23T03:34:47.908Z,100938.19
2024-04-23T03:37:14.746Z,100945.91
2024-04-23T03:39:41.901Z,100945.00
2024-04-23T03:42:08.808Z,100950.16
2024-04-23T03:44:38.412Z,100932.88
2024-04-23T03:47:06.804Z,100934.50
2024-04-23T03:49:33.676Z,100941.34
2024-04-23T03:52:10.589Z,100931.81
2024-04-23T03:54:38.166Z,100936.00
2024-04-23T03:57:04.971Z,100941.97
2024-04-23T03:59:31.944Z,100944.50
2024-04-23T04:02:17.557Z,100928.94
2024-04-23T04:05:03.222Z,100947.78
2024-04-23T04:07:30.133Z,100944.22
2024-04-23T04:09:56.947Z,100944.97
2024-04-23T04:12:24.359Z,100950.91
2024-04-23T04:14:51.115Z,100943.03
2024-04-23T04:17:18.016Z,100943.00
2024-04-23T04:19:44.862Z,100943.88
2024-04-23T04:22:11.691Z,100932.63
2024-04-23T04:24:38.466Z,100937.78
2024-04-23T04:27:05.228Z,100946.38
2024-04-23T04:29:32.043Z,100952.41
2024-04-23T04:31:58.951Z,100948.13
2024-04-23T04:34:25.817Z,100946.38
2024-04-23T04:36:52.582Z,100951.56
2024-04-23T04:39:19.369Z,100942.97
2024-04-23T04:41:46.188Z,100939.50
2024-04-23T04:44:13.073Z,100943.81
2024-04-23T04:46:39.995Z,100939.44
2024-04-23T04:49:06.794Z,100936.81
2024-04-23T04:51:33.646Z,100949.69
2024-04-23T04:54:00.481Z,100935.88
2024-04-23T04:56:30.585Z,100936.78
2024-04-23T04:58:57.477Z,100947.13
2024-04-23T05:01:24.305Z,100937.59
2024-04-23T05:03:51.116Z,100938.44
2024-04-23T05:06:17.924Z,100925.53
2024-04-23T05:08:44.713Z,100933.25
2024-04-23T05:11:11.608Z,100937.56
2024-04-23T05:13:38.454Z,100931.50
2024-04-23T05:16:05.614Z,100937.50
2024-04-23T05:18:34.347Z,100941.75
2024-04-23T05:21:02.169Z,100941.78
2024-04-23T05:23:29.091Z,100937.47
2024-04-23T05:25:55.905Z,100939.28
2024-04-23T05:28:22.719Z,100946.19
2024-04-23T05:31:08.150Z,100932.44
2024-04-23T05:33:35.022Z,100938.47
2024-04-23T05:36:01.885Z,100937.63
2024-04-23T05:38:29.268Z,100947.97
2024-04-23T05:40:56.171Z,100946.22
2024-04-23T05:43:22.974Z,100951.44
2024-04-23T05:45:50.335Z,100953.13
2024-04-23T05:48:54.486Z,100951.47
2024-04-23T05:51:58.766Z,100944.66
2024-04-23T05:55:03.083Z,100944.66
2024-04-23T05:57:29.902Z,100946.41
2024-04-23T05:59:56.681Z,100943.81
2024-04-23T06:02:25.418Z,100939.50
2024-04-23T06:04:52.367Z,100949.00
2024-04-23T06:07:19.256Z,100949.91
2024-04-23T06:09:46.652Z,100946.50
2024-04-23T06:12:13.403Z,100949.94
2024-04-23T06:14:44.433Z,100945.69
2024-04-23T06:17:28.437Z,100947.50
2024-04-23T06:20:02.864Z,100952.72
2024-04-23T06:22:32.433Z,100956.13
2024-04-23T06:24:59.277Z,100947.63
2024-04-23T06:27:26.325Z,100949.47
2024-04-23T06:29:54.140Z,100948.69
2024-04-23T06:32:22.771Z,100944.38
2024-04-23T06:34:50.714Z,100961.63
2024-04-23T06:37:17.595Z,100955.63
2024-04-23T06:39:45.186Z,100955.69
2024-04-23T06:42:12.043Z,100960.94
2024-04-23T06:44:38.928Z,100948.09
2024-04-23T06:47:05.773Z,100942.16
2024-04-23T06:49:32.769Z,100944.03
2024-04-23T06:52:00.279Z,100952.66
2024-04-23T06:54:27.945Z,100942.31
2024-04-23T06:56:54.731Z,100936.25
2024-04-23T06:59:21.509Z,100945.81
2024-04-23T07:01:48.517Z,100945.94
2024-04-23T07:04:15.400Z,100945.09
2024-04-23T07:06:42.170Z,100933.97
2024-04-23T07:09:10.400Z,100935.75
2024-04-23T07:11:37.303Z,100938.50
2024-04-23T07:14:05.304Z,100946.47
2024-04-23T07:16:32.260Z,100945.69
2024-04-23T07:19:02.233Z,100938.72
2024-04-23T07:21:29.760Z,100947.41
2024-04-23T07:23:56.864Z,100944.84
2024-04-23T07:26:25.545Z,100953.56
2024-04-23T07:28:52.368Z,100946.72
2024-04-23T07:31:19.326Z,100952.94
2024-04-23T07:33:46.132Z,100947.84
2024-04-23T07:36:13.064Z,100958.19
2024-04-23T07:38:40.032Z,100959.94
2024-04-23T07:41:07.143Z,100953.09
2024-04-23T07:43:34.190Z,100945.41
2024-04-23T07:46:01.163Z,100947.13
2024-04-23T07:48:28.348Z,100951.59
2024-04-23T07:50:55.237Z,100950.81
2024-04-23T07:53:22.018Z,100948.22
2024-04-23T07:55:48.857Z,100938.91
2024-04-23T07:58:15.694Z,100946.78
2024-04-23T08:00:42.501Z,100954.63
2024-04-23T08:03:11.545Z,100943.44
2024-04-23T08:05:38.681Z,100940.97
2024-04-23T08:08:06.039Z,100930.69
2024-04-23T08:10:33.488Z,100942.06
2024-04-23T08:13:00.317Z,100937.75
2024-04-23T08:15:27.471Z,100946.44
2024-04-23T08:17:54.490Z,100935.28
2024-04-23T08:20:21.418Z,100930.28
2024-04-23T08:22:48.482Z,100933.78
2024-04-23T08:25:18.902Z,100941.72
2024-04-23T08:27:47.433Z,100928.66
2024-04-23T08:30:14.570Z,100929.47
2024-04-23T08:32:42.113Z,100937.41
2024-04-23T08:35:09.182Z,100930.50
2024-04-23T08:37:36.557Z,100930.53
2024-04-23T08:40:03.537Z,100914.16
2024-04-23T08:42:34.684Z,100915.19
2024-04-23T08:45:03.451Z,100924.81
2024-04-23T08:47:30.653Z,100932.50
2024-04-23T08:49:58.413Z,100922.03
2024-04-23T08:52:25.426Z,100924.63
2024-04-23T08:54:52.501Z,100927.38
2024-04-23T08:57:20.923Z,100925.72
2024-04-23T08:59:49.850Z,100918.00
2024-04-23T09:02:31.660Z,100917.19
2024-04-23T09:05:01.787Z,100914.59
2024-04-23T09:07:33.262Z,100907.75
2024-04-23T09:10:03.205Z,100911.13
2024-04-23T09:12:31.015Z,100910.28
2024-04-23T09:15:00.938Z,100910.28
2024-04-23T09:17:31.799Z,100910.25
2024-04-23T09:19:58.914Z,100923.22
2024-04-23T09:22:28.340Z,100920.63
2024-04-23T09:25:03.524Z,100904.16
2024-04-23T09:27:34.493Z,100899.09
2024-04-23T09:30:02.970Z,100894.88
2024-04-23T09:32:30.974Z,100884.50
2024-04-23T09:34:58.951Z,100893.16
2024-04-23T09:37:26.992Z,100892.38
2024-04-23T09:40:03.150Z,100890.66
2024-04-23T09:42:31.006Z,100888.09
2024-04-23T09:44:59.508Z,100895.03
2024-04-23T09:47:27.924Z,100880.38
2024-04-23T09:49:57.367Z,100880.44
2024-04-23T09:52:37.322Z,100880.47
2024-04-23T09:55:06.704Z,100892.56
2024-04-23T09:57:37.534Z,100889.94
2024-04-23T10:00:05.780Z,100889.91
2024-04-23T10:02:39.024Z,100888.09
2024-04-23T10:05:11.537Z,100882.88
2024-04-23T10:07:51.697Z,100876.78
2024-04-23T10:10:29.332Z,100881.09
2024-04-23T10:12:58.407Z,100881.09
2024-04-23T10:15:38.806Z,100883.75
2024-04-23T10:18:13.899Z,100888.09
2024-04-23T10:20:46.224Z,100881.19
2024-04-23T10:23:16.802Z,100886.34
2024-04-23T10:25:44.277Z,100880.28
2024-04-23T10:28:11.509Z,100879.44
2024-04-23T10:30:38.660Z,100882.06
2024-04-23T10:33:09.027Z,100882.09
2024-04-23T10:35:38.188Z,100872.59
2024-04-23T10:38:07.889Z,100878.72
2024-04-23T10:40:43.023Z,100871.78
2024-04-23T10:43:15.877Z,100872.69
2024-04-23T10:45:43.080Z,100875.38
2024-04-23T10:48:11.460Z,100877.16
2024-04-23T10:50:39.048Z,100866.75
2024-04-23T10:53:06.722Z,100854.59
2024-04-23T10:55:33.785Z,100871.09
2024-04-23T10:58:05.532Z,100872.81
2024-04-23T11:00:37.126Z,100869.34
2024-04-23T11:03:18.651Z,100869.41
2024-04-23T11:05:47.930Z,100862.50
2024-04-23T11:08:26.508Z,100866.00
2024-04-23T11:11:05.090Z,100867.75
2024-04-23T11:13:39.978Z,100859.91
2024-04-23T11:16:19.760Z,100863.38
2024-04-23T11:18:51.074Z,100867.66
2024-04-23T11:21:25.890Z,100861.63
2024-04-23T11:23:53.624Z,100857.25
2024-04-23T11:26:24.157Z,100857.31
2024-04-23T11:28:51.476Z,100859.09
2024-04-23T11:31:20.317Z,100859.97
2024-04-23T11:33:50.242Z,100851.28
2024-04-23T11:36:25.785Z,100851.25
2024-04-23T11:38:55.657Z,100850.34
2024-04-23T11:41:22.566Z,100858.94
2024-04-23T11:43:49.536Z,100851.06
2024-04-23T11:46:17.346Z,100848.44
2024-04-23T11:48:45.248Z,100851.00
2024-04-23T11:51:15.437Z,100854.44
2024-04-23T11:53:42.770Z,100857.00
2024-04-23T11:56:10.590Z,100872.59
2024-04-23T11:58:43.931Z,100857.88
2024-04-23T12:01:10.966Z,100853.59
2024-04-23T12:03:39.116Z,100847.53
2024-04-23T12:06:07.896Z,100857.97
2024-04-23T12:08:36.012Z,100856.31
2024-04-23T12:11:04.349Z,100846.78
2024-04-23T12:13:31.308Z,100849.41
2024-04-23T12:16:02.214Z,100854.63
2024-04-23T12:18:29.482Z,100848.53
2024-04-23T12:20:56.373Z,100845.94
2024-04-23T12:23:23.240Z,100855.47
2024-04-23T12:25:53.001Z,100842.50
2024-04-23T12:28:19.801Z,100844.22
2024-04-23T12:30:46.891Z,100843.38
2024-04-23T12:33:14.416Z,100846.84
2024-04-23T12:35:41.705Z,100848.56
2024-04-23T12:38:13.244Z,100841.63
2024-04-23T12:40:41.385Z,100843.38
2024-04-23T12:43:12.513Z,100832.16
2024-04-23T12:45:40.259Z,100836.53
2024-04-23T12:48:07.719Z,100832.25
2024-04-23T12:50:34.882Z,100835.72
2024-04-23T12:53:02.608Z,100840.06
2024-04-23T12:55:31.581Z,100847.84
2024-04-23T12:57:59.530Z,100825.31
2024-04-23T13:00:26.376Z,100835.72
2024-04-23T13:02:53.435Z,100824.44
2024-04-23T13:05:21.586Z,100828.78
2024-04-23T13:07:48.781Z,100816.69
2024-04-23T13:10:16.559Z,100821.06
2024-04-23T13:12:43.548Z,100814.13
2024-04-23T13:15:11.601Z,100821.94
2024-04-23T13:17:38.595Z,100816.72
2024-04-23T13:20:05.816Z,100821.06
2024-04-23T13:22:32.719Z,100823.59
2024-04-23T13:24:59.566Z,100821.00
2024-04-23T13:27:26.749Z,100815.84
2024-04-23T13:29:53.569Z,100811.53
2024-04-23T13:32:20.432Z,100810.66
2024-04-23T13:34:47.428Z,100820.16
2024-04-23T13:37:14.921Z,100817.59
2024-04-23T13:39:41.817Z,100805.41
2024-04-23T13:42:08.603Z,100801.13
2024-04-23T13:44:37.381Z,100807.22
2024-04-23T13:47:05.816Z,100794.22
2024-04-23T13:49:36.506Z,100790.75
2024-04-23T13:52:03.839Z,100791.63
2024-04-23T13:54:30.781Z,100794.25
2024-04-23T13:56:57.989Z,100785.56
2024-04-23T13:59:25.740Z,100803.78
2024-04-23T14:01:52.907Z,100779.50
2024-04-23T14:04:19.799Z,100777.75
2024-04-23T14:06:47.960Z,100775.16
2024-04-23T14:09:14.737Z,100781.22
2024-04-23T14:11:43.496Z,100770.84
2024-04-23T14:14:11.848Z,100776.91
2024-04-23T14:16:38.937Z,100777.78
2024-04-23T14:19:05.845Z,100774.31
2024-04-23T14:21:32.636Z,100766.50
2024-04-23T14:23:59.490Z,100769.09
2024-04-23T14:26:28.704Z,100763.91
2024-04-23T14:28:55.899Z,100768.22
2024-04-23T14:31:22.888Z,100764.75
2024-04-23T14:33:49.834Z,100768.22
2024-04-23T14:36:16.631Z,100766.47
2024-04-23T14:38:43.502Z,100769.94
2024-04-23T14:41:10.599Z,100780.34
2024-04-23T14:43:37.665Z,100766.47
2024-04-23T14:46:14.729Z,100763.00
2024-04-23T14:48:42.144Z,100764.75
2024-04-23T14:51:10.383Z,100756.94
2024-04-23T14:53:37.256Z,100755.19
2024-04-23T14:56:05.617Z,100754.31
2024-04-23T14:58:34.268Z,100755.16
2024-04-23T15:01:02.478Z,100751.72
2024-04-23T15:03:32.416Z,100756.06
2024-04-23T15:05:59.264Z,100750.00
2024-04-23T15:08:26.971Z,100750.88
2024-04-23T15:10:54.303Z,100752.63
2024-04-23T15:13:23.181Z,100744.81
2024-04-23T15:15:59.201Z,100748.28
2024-04-23T15:18:26.506Z,100750.88
2024-04-23T15:20:53.460Z,100750.88
2024-04-23T15:23:20.318Z,100748.28
2024-04-23T15:25:49.180Z,100743.06
2024-04-23T15:28:17.798Z,100751.75
2024-04-23T15:30:44.640Z,100740.47
2024-04-23T15:33:11.614Z,100735.28
2024-04-23T15:35:38.674Z,100738.75
2024-04-23T15:38:05.460Z,100736.16
2024-04-23T15:40:32.240Z,100732.69
2024-04-23T15:42:59.059Z,100730.94
2024-04-23T15:45:26.348Z,100728.34
2024-04-23T15:47:54.958Z,100730.06
2024-04-23T15:50:22.096Z,100730.06
2024-04-23T15:52:48.957Z,100722.28
2024-04-23T15:55:17.027Z,100719.66
2024-04-23T15:57:43.794Z,100726.59
2024-04-23T16:00:11.080Z,100719.69
2024-04-23T16:02:37.981Z,100719.69
2024-04-23T16:05:05.179Z,100727.47
2024-04-23T16:07:32.170Z,100705.81
2024-04-23T16:09:58.974Z,100721.41
2024-04-23T16:12:25.851Z,100715.34
2024-04-23T16:14:52.679Z,100707.53
2024-04-23T16:17:19.637Z,100716.22
2024-04-23T16:19:46.620Z,100708.41
2024-04-23T16:22:13.448Z,100712.72
2024-04-23T16:24:40.225Z,100709.28
2024-04-23T16:27:07.056Z,100702.34
2024-04-23T16:29:33.932Z,100698.00
2024-04-23T16:32:02.205Z,100691.06
2024-04-23T16:34:29.296Z,100694.53
2024-04-23T16:36:56.133Z,100691.06
2024-04-23T16:39:26.074Z,100700.59
2024-04-23T16:41:53.774Z,100698.84
2024-04-23T16:44:20.689Z,100687.59
2024-04-23T16:46:50.391Z,100697.13
2024-04-23T16:49:17.971Z,100689.31
2024-04-23T16:51:44.875Z,100688.47
2024-04-23T16:54:11.978Z,100699.72
2024-04-23T16:56:38.859Z,100689.34
2024-04-23T16:59:05.762Z,100685.00
2024-04-23T17:01:32.550Z,100691.94
2024-04-23T17:03:59.869Z,100678.06
2024-04-23T17:06:26.802Z,100680.66
2024-04-23T17:08:53.716Z,100670.25
2024-04-23T17:11:20.690Z,100674.59
2024-04-23T17:13:47.695Z,100662.47
2024-04-23T17:16:18.612Z,100673.72
2024-04-23T17:18:45.753Z,100666.81
2024-04-23T17:21:17.319Z,100665.06
2024-04-23T17:23:45.732Z,100659.88
2024-04-23T17:26:13.072Z,100668.53
2024-04-23T17:28:40.390Z,100672.88
2024-04-23T17:31:08.553Z,100664.16
2024-04-23T17:33:36.048Z,100671.97
2024-04-23T17:36:03.347Z,100672.81
2024-04-23T17:38:30.140Z,100669.38
2024-04-23T17:40:57.196Z,100667.63
2024-04-23T17:43:24.054Z,100670.22
2024-04-23T17:45:50.815Z,100665.91
2024-04-23T17:48:17.916Z,100668.50
2024-04-23T17:50:44.726Z,100672.81
2024-04-23T17:53:11.590Z,100662.44
2024-04-23T17:55:38.842Z,100665.03
2024-04-23T17:58:05.739Z,100665.03
2024-04-23T18:00:32.508Z,100666.75
2024-04-23T18:02:59.384Z,100671.09
2024-04-23T18:05:26.223Z,100676.28
2024-04-23T18:07:53.126Z,100672.81
2024-04-23T18:10:19.914Z,100678.84
2024-04-23T18:12:47.399Z,100675.38
2024-04-23T18:15:14.284Z,100671.06
2024-04-23T18:17:41.188Z,100677.97
2024-04-23T18:20:09.703Z,100675.38
2024-04-23T18:22:37.326Z,100677.09
2024-04-23T18:25:04.678Z,100677.97
2024-04-23T18:27:31.543Z,100675.34
2024-04-23T18:29:58.388Z,100679.69
2024-04-23T18:32:25.566Z,100674.44
2024-04-23T18:34:52.661Z,100675.28
2024-04-23T18:37:19.454Z,100683.06
2024-04-23T18:39:46.314Z,100683.91
2024-04-23T18:42:13.734Z,100675.25
2024-04-23T18:44:40.713Z,100683.84
2024-04-23T18:47:07.732Z,100681.25
2024-04-23T18:49:34.653Z,100678.63
2024-04-23T18:52:01.662Z,100681.22
2024-04-23T18:54:28.750Z,100681.19
2024-04-23T18:56:55.983Z,100682.03
2024-04-23T18:59:24.125Z,100682.03
2024-04-23T19:01:51.180Z,100669.91
2024-04-23T19:04:18.100Z,100683.72
2024-04-23T19:06:44.892Z,100680.19
2024-04-23T19:09:11.720Z,100677.56
2024-04-23T19:11:38.742Z,100682.75
2024-04-23T19:14:14.467Z,100685.31
2024-04-23T19:16:44.987Z,100685.31
2024-04-23T19:19:12.325Z,100681.81
2024-04-23T19:21:39.237Z,100686.13
2024-04-23T19:24:06.680Z,100680.94
2024-04-23T19:26:33.702Z,100681.78
2024-04-23T19:29:00.771Z,100683.50
2024-04-23T19:31:29.991Z,100687.81
2024-04-23T19:33:56.871Z,100690.41
2024-04-23T19:36:24.872Z,100686.06
2024-04-23T19:38:51.712Z,100695.56
2024-04-23T19:41:18.751Z,100685.19
2024-04-23T19:43:52.100Z,100688.63
2024-04-23T19:46:21.463Z,100681.69
2024-04-23T19:48:50.576Z,100682.53
2024-04-23T19:51:21.502Z,100680.78
2024-04-23T19:53:51.498Z,100687.72
2024-04-23T19:56:31.727Z,100685.09
2024-04-23T19:59:01.479Z,100680.78
2024-04-23T20:01:29.407Z,100685.09
2024-04-23T20:03:56.818Z,100679.91
2024-04-23T20:06:23.863Z,100690.25
2024-04-23T20:08:50.793Z,100686.81
2024-04-23T20:11:17.802Z,100685.94
2024-04-23T20:13:44.825Z,100685.91
2024-04-23T20:16:11.818Z,100679.88
2024-04-23T20:18:38.770Z,100688.50
2024-04-23T20:21:15.657Z,100681.53
2024-04-23T20:23:43.245Z,100692.75
2024-04-23T20:26:14.770Z,100686.69
2024-04-23T20:28:42.798Z,100689.28
2024-04-23T20:31:09.802Z,100688.41
2024-04-23T20:33:36.866Z,100692.72
2024-04-23T20:36:04.292Z,100691.84
2024-04-23T20:38:31.583Z,100695.31
2024-04-23T20:40:58.432Z,100699.63
2024-04-23T20:43:25.382Z,100695.28
2024-04-23T20:45:52.213Z,100699.56
2024-04-23T20:48:19.311Z,100684.84
2024-04-23T20:50:54.112Z,100684.84
2024-04-23T20:53:21.167Z,100682.25
2024-04-23T20:55:48.003Z,100688.25
2024-04-23T20:58:14.828Z,100680.47
2024-04-23T21:00:41.626Z,100680.47
2024-04-23T21:03:10.573Z,100679.59
2024-04-23T21:05:37.762Z,100681.34
2024-04-23T21:08:07.989Z,100683.06
2024-04-23T21:10:36.656Z,100683.91
2024-04-23T21:13:04.364Z,100675.28
2024-04-23T21:15:33.284Z,100681.31
2024-04-23T21:18:00.443Z,100677.84
2024-04-23T21:20:28.140Z,100674.38
2024-04-23T21:22:55.246Z,100671.81
2024-04-23T21:25:22.167Z,100658.00
2024-04-23T21:27:49.031Z,100650.22
2024-04-23T21:30:15.887Z,100658.00
2024-04-23T21:32:42.857Z,100666.59
2024-04-23T21:35:09.891Z,100668.31
2024-04-23T21:37:36.727Z,100662.28
2024-04-23T21:40:03.792Z,100652.78
2024-04-23T21:42:35.879Z,100667.47
2024-04-23T21:45:08.339Z,100664.00
2024-04-23T21:47:35.733Z,100664.84
2024-04-23T21:50:03.008Z,100664.00
2024-04-23T21:52:39.303Z,100662.25
2024-04-23T21:55:09.064Z,100664.84
2024-04-23T21:57:36.154Z,100662.25
2024-04-23T22:00:03.790Z,100663.13
2024-04-23T22:02:30.805Z,100643.25
2024-04-23T22:04:57.777Z,100651.88
2024-04-23T22:07:24.577Z,100643.25
2024-04-23T22:09:51.362Z,100656.16
2024-04-23T22:12:18.164Z,100646.63
2024-04-23T22:14:44.922Z,100648.34
2024-04-23T22:17:12.621Z,100644.88
2024-04-23T22:19:39.511Z,100643.13
2024-04-23T22:22:06.354Z,100638.81
2024-04-23T22:24:33.303Z,100637.94
2024-04-23T22:27:00.071Z,100632.75
2024-04-23T22:29:26.984Z,100631.00
2024-04-23T22:31:53.787Z,100629.25
2024-04-23T22:34:20.589Z,100624.88
2024-04-23T22:36:47.390Z,100624.84
2024-04-23T22:39:14.139Z,100623.97
2024-04-23T22:41:40.905Z,100617.91
2024-04-23T22:44:07.763Z,100617.03
2024-04-23T22:46:34.614Z,100626.53
2024-04-23T22:49:03.643Z,100626.53
2024-04-23T22:51:30.560Z,100621.31
2024-04-23T22:53:57.609Z,100620.44
2024-04-23T22:56:24.617Z,100614.38
2024-04-23T22:58:51.432Z,100608.31
2024-04-23T23:01:18.237Z,100617.78
2024-04-23T23:03:45.127Z,100616.06
2024-04-23T23:06:12.015Z,100622.97
2024-04-23T23:08:38.824Z,100632.47
2024-04-23T23:11:05.781Z,100624.69
2024-04-23T23:13:32.660Z,100624.72
2024-04-23T23:15:59.456Z,100623.00
2024-04-23T23:18:26.333Z,100621.28
2024-04-23T23:20:53.081Z,100620.41
2024-04-23T23:23:20.016Z,100610.03
2024-04-23T23:25:46.945Z,100604.00
2024-04-23T23:28:13.763Z,100604.88
2024-04-23T23:30:40.562Z,100597.09
2024-04-23T23:33:07.425Z,100600.53
2024-04-23T23:35:34.377Z,100594.47
2024-04-23T23:38:01.167Z,100598.81
2024-04-23T23:40:27.984Z,100595.34
2024-04-23T23:42:56.244Z,100585.84
2024-04-23T23:45:26.173Z,100592.75
2024-04-23T23:47:54.544Z,100586.72
2024-04-23T23:50:21.575Z,100578.06
2024-04-23T23:52:48.422Z,100573.75
2024-04-23T23:55:15.274Z,100578.03
2024-04-23T23:57:42.592Z,100569.41
